sensor_id;sensor_type;location;lat;lon;timestamp;P1;durP1;ratioP1;P2;durP2;ratioP2
24163;SDS011;12319;49.204;8.116;2023-11-21T00:00:12;3.67;;;1.90;;
24163;SDS011;12319;49.204;8.116;2023-11-21T00:02:39;3.80;;;1.95;;
24163;SDS011;12319;49.204;8.116;2023-11-21T00:05:06;3.90;;;1.80;;
24163;SDS011;12319;49.204;8.116;2023-11-21T00:07:33;3.42;;;1.88;;
24163;SDS011;12319;49.204;8.116;2023-11-21T00:09:58;4.37;;;2.33;;
24163;SDS011;12319;49.204;8.116;2023-11-21T00:12:24;3.37;;;1.70;;
24163;SDS011;12319;49.204;8.116;2023-11-21T00:14:49;3.72;;;1.80;;
24163;SDS011;12319;49.204;8.116;2023-11-21T00:17:15;4.77;;;2.33;;
24163;SDS011;12319;49.204;8.116;2023-11-21T00:19:41;4.40;;;2.20;;
24163;SDS011;12319;49.204;8.116;2023-11-21T00:22:07;3.95;;;2.15;;
24163;SDS011;12319;49.204;8.116;2023-11-21T00:24:34;4.35;;;2.00;;
24163;SDS011;12319;49.204;8.116;2023-11-21T00:26:59;4.90;;;2.15;;
24163;SDS011;12319;49.204;8.116;2023-11-21T00:29:25;3.97;;;2.07;;
24163;SDS011;12319;49.204;8.116;2023-11-21T00:31:50;6.23;;;2.30;;
24163;SDS011;12319;49.204;8.116;2023-11-21T00:34:16;4.10;;;2.00;;
24163;SDS011;12319;49.204;8.116;2023-11-21T00:36:42;4.77;;;2.00;;
24163;SDS011;12319;49.204;8.116;2023-11-21T00:39:07;4.20;;;2.10;;
24163;SDS011;12319;49.204;8.116;2023-11-21T00:41:33;5.63;;;2.30;;
24163;SDS011;12319;49.204;8.116;2023-11-21T00:43:59;4.18;;;1.83;;
24163;SDS011;12319;49.204;8.116;2023-11-21T00:46:25;5.03;;;2.00;;
24163;SDS011;12319;49.204;8.116;2023-11-21T00:48:54;3.83;;;1.90;;
24163;SDS011;12319;49.204;8.116;2023-11-21T00:51:20;4.80;;;1.98;;
24163;SDS011;12319;49.204;8.116;2023-11-21T00:53:47;3.03;;;1.80;;
24163;SDS011;12319;49.204;8.116;2023-11-21T00:56:12;4.18;;;1.83;;
24163;SDS011;12319;49.204;8.116;2023-11-21T00:58:38;3.80;;;1.80;;
24163;SDS011;12319;49.204;8.116;2023-11-21T01:01:07;3.83;;;1.90;;
24163;SDS011;12319;49.204;8.116;2023-11-21T01:03:33;4.10;;;2.00;;
24163;SDS011;12319;49.204;8.116;2023-11-21T01:05:58;4.28;;;1.80;;
24163;SDS011;12319;49.204;8.116;2023-11-21T01:08:24;4.10;;;2.00;;
24163;SDS011;12319;49.204;8.116;2023-11-21T01:10:49;3.37;;;1.83;;
24163;SDS011;12319;49.204;8.116;2023-11-21T01:13:15;3.83;;;1.90;;
24163;SDS011;12319;49.204;8.116;2023-11-21T01:15:41;4.83;;;1.90;;
24163;SDS011;12319;49.204;8.116;2023-11-21T01:18:07;3.63;;;1.70;;
24163;SDS011;12319;49.204;8.116;2023-11-21T01:20:33;4.30;;;1.90;;
24163;SDS011;12319;49.204;8.116;2023-11-21T01:22:59;3.00;;;1.73;;
24163;SDS011;12319;49.204;8.116;2023-11-21T01:25:25;3.85;;;2.00;;
24163;SDS011;12319;49.204;8.116;2023-11-21T01:27:50;5.20;;;2.00;;
24163;SDS011;12319;49.204;8.116;2023-11-21T01:30:17;3.60;;;1.95;;
24163;SDS011;12319;49.204;8.116;2023-11-21T01:32:42;5.03;;;1.93;;
24163;SDS011;12319;49.204;8.116;2023-11-21T01:35:08;4.72;;;1.90;;
24163;SDS011;12319;49.204;8.116;2023-11-21T01:37:35;9.18;;;2.10;;
24163;SDS011;12319;49.204;8.116;2023-11-21T01:40:01;4.13;;;2.08;;
24163;SDS011;12319;49.204;8.116;2023-11-21T01:42:27;3.22;;;1.70;;
24163;SDS011;12319;49.204;8.116;2023-11-21T01:44:54;3.23;;;1.70;;
24163;SDS011;12319;49.204;8.116;2023-11-21T01:47:20;4.20;;;1.80;;
24163;SDS011;12319;49.204;8.116;2023-11-21T01:49:46;4.68;;;1.90;;
24163;SDS011;12319;49.204;8.116;2023-11-21T01:52:12;3.47;;;1.80;;
24163;SDS011;12319;49.204;8.116;2023-11-21T01:54:38;4.47;;;1.80;;
24163;SDS011;12319;49.204;8.116;2023-11-21T01:57:06;4.65;;;1.98;;
24163;SDS011;12319;49.204;8.116;2023-11-21T01:59:36;4.15;;;2.05;;
24163;SDS011;12319;49.204;8.116;2023-11-21T02:02:03;4.93;;;2.08;;
24163;SDS011;12319;49.204;8.116;2023-11-21T02:04:31;3.93;;;2.00;;
24163;SDS011;12319;49.204;8.116;2023-11-21T02:06:57;4.80;;;2.00;;
24163;SDS011;12319;49.204;8.116;2023-11-21T02:09:26;4.25;;;1.80;;
24163;SDS011;12319;49.204;8.116;2023-11-21T02:11:53;4.17;;;1.87;;
24163;SDS011;12319;49.204;8.116;2023-11-21T02:14:19;3.20;;;1.77;;
24163;SDS011;12319;49.204;8.116;2023-11-21T02:16:50;4.68;;;1.95;;
24163;SDS011;12319;49.204;8.116;2023-11-21T02:19:19;4.13;;;1.80;;
24163;SDS011;12319;49.204;8.116;2023-11-21T02:21:50;3.30;;;1.90;;
24163;SDS011;12319;49.204;8.116;2023-11-21T02:24:23;4.00;;;1.80;;
24163;SDS011;12319;49.204;8.116;2023-11-21T02:26:49;3.65;;;1.90;;
24163;SDS011;12319;49.204;8.116;2023-11-21T02:29:18;3.40;;;1.70;;
24163;SDS011;12319;49.204;8.116;2023-11-21T02:31:47;2.85;;;1.60;;
24163;SDS011;12319;49.204;8.116;2023-11-21T02:34:15;3.65;;;1.80;;
24163;SDS011;12319;49.204;8.116;2023-11-21T02:36:40;3.60;;;1.90;;
24163;SDS011;12319;49.204;8.116;2023-11-21T02:39:07;2.88;;;1.60;;
24163;SDS011;12319;49.204;8.116;2023-11-21T02:41:33;2.70;;;1.60;;
24163;SDS011;12319;49.204;8.116;2023-11-21T02:43:59;3.95;;;1.83;;
24163;SDS011;12319;49.204;8.116;2023-11-21T02:46:25;3.20;;;1.70;;
24163;SDS011;12319;49.204;8.116;2023-11-21T02:48:51;3.72;;;1.70;;
24163;SDS011;12319;49.204;8.116;2023-11-21T02:51:18;2.75;;;1.60;;
24163;SDS011;12319;49.204;8.116;2023-11-21T02:53:44;2.97;;;1.70;;
24163;SDS011;12319;49.204;8.116;2023-11-21T02:56:11;2.90;;;1.65;;
24163;SDS011;12319;49.204;8.116;2023-11-21T02:58:37;2.83;;;1.63;;
24163;SDS011;12319;49.204;8.116;2023-11-21T03:01:02;3.63;;;1.80;;
24163;SDS011;12319;49.204;8.116;2023-11-21T03:03:32;3.20;;;1.70;;
24163;SDS011;12319;49.204;8.116;2023-11-21T03:05:57;2.97;;;1.60;;
24163;SDS011;12319;49.204;8.116;2023-11-21T03:08:25;2.50;;;1.50;;
24163;SDS011;12319;49.204;8.116;2023-11-21T03:10:50;3.40;;;1.80;;
24163;SDS011;12319;49.204;8.116;2023-11-21T03:13:16;3.23;;;1.80;;
24163;SDS011;12319;49.204;8.116;2023-11-21T03:15:41;2.70;;;1.50;;
24163;SDS011;12319;49.204;8.116;2023-11-21T03:18:07;3.03;;;1.80;;
24163;SDS011;12319;49.204;8.116;2023-11-21T03:20:33;3.22;;;1.70;;
24163;SDS011;12319;49.204;8.116;2023-11-21T03:22:59;3.33;;;1.83;;
24163;SDS011;12319;49.204;8.116;2023-11-21T03:25:25;3.20;;;1.80;;
24163;SDS011;12319;49.204;8.116;2023-11-21T03:27:51;3.38;;;1.65;;
24163;SDS011;12319;49.204;8.116;2023-11-21T03:30:16;3.83;;;1.77;;
24163;SDS011;12319;49.204;8.116;2023-11-21T03:32:42;3.33;;;1.73;;
24163;SDS011;12319;49.204;8.116;2023-11-21T03:35:08;3.97;;;1.97;;
24163;SDS011;12319;49.204;8.116;2023-11-21T03:37:33;3.40;;;1.70;;
24163;SDS011;12319;49.204;8.116;2023-11-21T03:39:59;2.88;;;1.65;;
24163;SDS011;12319;49.204;8.116;2023-11-21T03:42:24;3.57;;;1.90;;
24163;SDS011;12319;49.204;8.116;2023-11-21T03:44:52;2.55;;;1.50;;
24163;SDS011;12319;49.204;8.116;2023-11-21T03:47:18;3.43;;;1.60;;
24163;SDS011;12319;49.204;8.116;2023-11-21T03:49:44;3.05;;;1.70;;
24163;SDS011;12319;49.204;8.116;2023-11-21T03:52:10;2.90;;;1.67;;
24163;SDS011;12319;49.204;8.116;2023-11-21T03:54:36;2.80;;;1.53;;
24163;SDS011;12319;49.204;8.116;2023-11-21T03:57:02;3.80;;;1.50;;
24163;SDS011;12319;49.204;8.116;2023-11-21T03:59:28;2.67;;;1.58;;
24163;SDS011;12319;49.204;8.116;2023-11-21T04:01:55;2.93;;;1.67;;
24163;SDS011;12319;49.204;8.116;2023-11-21T04:04:21;2.55;;;1.60;;
24163;SDS011;12319;49.204;8.116;2023-11-21T04:06:47;3.40;;;1.70;;
24163;SDS011;12319;49.204;8.116;2023-11-21T04:09:13;3.30;;;1.83;;
24163;SDS011;12319;49.204;8.116;2023-11-21T04:11:38;4.38;;;1.70;;
24163;SDS011;12319;49.204;8.116;2023-11-21T04:14:04;2.47;;;1.57;;
24163;SDS011;12319;49.204;8.116;2023-11-21T04:16:29;2.90;;;1.60;;
24163;SDS011;12319;49.204;8.116;2023-11-21T04:18:55;3.17;;;1.67;;
24163;SDS011;12319;49.204;8.116;2023-11-21T04:21:20;3.17;;;1.80;;
24163;SDS011;12319;49.204;8.116;2023-11-21T04:23:46;4.90;;;1.70;;
24163;SDS011;12319;49.204;8.116;2023-11-21T04:26:11;3.75;;;1.60;;
24163;SDS011;12319;49.204;8.116;2023-11-21T04:28:37;2.53;;;1.50;;
24163;SDS011;12319;49.204;8.116;2023-11-21T04:31:02;2.73;;;1.60;;
24163;SDS011;12319;49.204;8.116;2023-11-21T04:33:28;2.80;;;1.70;;
24163;SDS011;12319;49.204;8.116;2023-11-21T04:35:54;2.88;;;1.50;;
24163;SDS011;12319;49.204;8.116;2023-11-21T04:38:19;3.42;;;1.58;;
24163;SDS011;12319;49.204;8.116;2023-11-21T04:40:45;3.17;;;1.77;;
24163;SDS011;12319;49.204;8.116;2023-11-21T04:43:10;3.03;;;1.67;;
24163;SDS011;12319;49.204;8.116;2023-11-21T04:45:36;3.03;;;1.80;;
24163;SDS011;12319;49.204;8.116;2023-11-21T04:48:02;2.63;;;1.50;;
24163;SDS011;12319;49.204;8.116;2023-11-21T04:50:27;2.53;;;1.50;;
24163;SDS011;12319;49.204;8.116;2023-11-21T04:52:53;2.80;;;1.67;;
24163;SDS011;12319;49.204;8.116;2023-11-21T04:55:19;3.03;;;1.70;;
24163;SDS011;12319;49.204;8.116;2023-11-21T04:57:44;3.80;;;1.60;;
24163;SDS011;12319;49.204;8.116;2023-11-21T05:00:10;2.97;;;1.60;;
24163;SDS011;12319;49.204;8.116;2023-11-21T05:02:37;3.85;;;1.80;;
24163;SDS011;12319;49.204;8.116;2023-11-21T05:05:03;3.70;;;2.10;;
24163;SDS011;12319;49.204;8.116;2023-11-21T05:07:30;2.80;;;1.70;;
24163;SDS011;12319;49.204;8.116;2023-11-21T05:09:57;5.05;;;1.80;;
24163;SDS011;12319;49.204;8.116;2023-11-21T05:12:23;3.00;;;1.70;;
24163;SDS011;12319;49.204;8.116;2023-11-21T05:14:49;3.37;;;1.70;;
24163;SDS011;12319;49.204;8.116;2023-11-21T05:17:15;3.30;;;1.80;;
24163;SDS011;12319;49.204;8.116;2023-11-21T05:19:41;3.28;;;1.75;;
24163;SDS011;12319;49.204;8.116;2023-11-21T05:22:08;3.40;;;1.80;;
24163;SDS011;12319;49.204;8.116;2023-11-21T05:24:33;3.20;;;1.80;;
24163;SDS011;12319;49.204;8.116;2023-11-21T05:27:00;3.50;;;1.88;;
24163;SDS011;12319;49.204;8.116;2023-11-21T05:29:25;3.20;;;1.80;;
24163;SDS011;12319;49.204;8.116;2023-11-21T05:31:51;3.67;;;1.90;;
24163;SDS011;12319;49.204;8.116;2023-11-21T05:34:18;3.13;;;1.70;;
24163;SDS011;12319;49.204;8.116;2023-11-21T05:36:43;3.45;;;1.90;;
24163;SDS011;12319;49.204;8.116;2023-11-21T05:39:10;3.50;;;1.90;;
24163;SDS011;12319;49.204;8.116;2023-11-21T05:41:36;2.53;;;1.50;;
24163;SDS011;12319;49.204;8.116;2023-11-21T05:44:02;2.70;;;1.67;;
24163;SDS011;12319;49.204;8.116;2023-11-21T05:46:27;2.97;;;1.60;;
24163;SDS011;12319;49.204;8.116;2023-11-21T05:48:53;3.43;;;1.80;;
24163;SDS011;12319;49.204;8.116;2023-11-21T05:51:18;3.03;;;1.60;;
24163;SDS011;12319;49.204;8.116;2023-11-21T05:53:44;4.25;;;1.83;;
24163;SDS011;12319;49.204;8.116;2023-11-21T05:56:09;2.70;;;1.70;;
24163;SDS011;12319;49.204;8.116;2023-11-21T05:58:35;2.60;;;1.70;;
24163;SDS011;12319;49.204;8.116;2023-11-21T06:01:00;2.92;;;1.60;;
24163;SDS011;12319;49.204;8.116;2023-11-21T06:03:26;3.43;;;1.93;;
24163;SDS011;12319;49.204;8.116;2023-11-21T06:05:51;2.93;;;1.70;;
24163;SDS011;12319;49.204;8.116;2023-11-21T06:08:17;3.03;;;1.80;;
24163;SDS011;12319;49.204;8.116;2023-11-21T06:10:43;4.40;;;1.90;;
24163;SDS011;12319;49.204;8.116;2023-11-21T06:13:09;4.70;;;1.63;;
24163;SDS011;12319;49.204;8.116;2023-11-21T06:15:35;4.43;;;1.60;;
24163;SDS011;12319;49.204;8.116;2023-11-21T06:18:01;3.00;;;1.70;;
24163;SDS011;12319;49.204;8.116;2023-11-21T06:20:26;2.77;;;1.70;;
24163;SDS011;12319;49.204;8.116;2023-11-21T06:22:53;3.22;;;1.70;;
24163;SDS011;12319;49.204;8.116;2023-11-21T06:25:18;4.00;;;2.00;;
24163;SDS011;12319;49.204;8.116;2023-11-21T06:27:45;3.53;;;1.80;;
24163;SDS011;12319;49.204;8.116;2023-11-21T06:30:15;3.90;;;1.95;;
24163;SDS011;12319;49.204;8.116;2023-11-21T06:32:41;3.45;;;1.75;;
24163;SDS011;12319;49.204;8.116;2023-11-21T06:35:10;3.80;;;1.75;;
24163;SDS011;12319;49.204;8.116;2023-11-21T06:37:36;3.60;;;1.90;;
24163;SDS011;12319;49.204;8.116;2023-11-21T06:40:02;4.32;;;1.85;;
24163;SDS011;12319;49.204;8.116;2023-11-21T06:42:32;3.60;;;1.88;;
24163;SDS011;12319;49.204;8.116;2023-11-21T06:44:58;2.90;;;1.70;;
24163;SDS011;12319;49.204;8.116;2023-11-21T06:47:24;2.92;;;1.70;;
24163;SDS011;12319;49.204;8.116;2023-11-21T06:49:50;3.10;;;1.73;;
24163;SDS011;12319;49.204;8.116;2023-11-21T06:52:17;3.35;;;1.70;;
24163;SDS011;12319;49.204;8.116;2023-11-21T06:54:43;3.23;;;1.70;;
24163;SDS011;12319;49.204;8.116;2023-11-21T06:57:08;2.65;;;1.60;;
24163;SDS011;12319;49.204;8.116;2023-11-21T06:59:34;2.93;;;1.60;;
24163;SDS011;12319;49.204;8.116;2023-11-21T07:02:00;2.30;;;1.50;;
24163;SDS011;12319;49.204;8.116;2023-11-21T07:04:26;3.53;;;1.70;;
24163;SDS011;12319;49.204;8.116;2023-11-21T07:06:53;2.90;;;1.60;;
24163;SDS011;12319;49.204;8.116;2023-11-21T07:09:19;3.08;;;1.70;;
24163;SDS011;12319;49.204;8.116;2023-11-21T07:11:47;2.57;;;1.60;;
24163;SDS011;12319;49.204;8.116;2023-11-21T07:14:13;2.63;;;1.58;;
24163;SDS011;12319;49.204;8.116;2023-11-21T07:16:39;2.88;;;1.70;;
24163;SDS011;12319;49.204;8.116;2023-11-21T07:19:05;2.73;;;1.60;;
24163;SDS011;12319;49.204;8.116;2023-11-21T07:21:31;2.70;;;1.67;;
24163;SDS011;12319;49.204;8.116;2023-11-21T07:24:01;3.15;;;1.80;;
24163;SDS011;12319;49.204;8.116;2023-11-21T07:26:27;2.50;;;1.60;;
24163;SDS011;12319;49.204;8.116;2023-11-21T07:28:53;2.93;;;1.77;;
24163;SDS011;12319;49.204;8.116;2023-11-21T07:31:19;2.63;;;1.58;;
24163;SDS011;12319;49.204;8.116;2023-11-21T07:33:45;3.25;;;1.80;;
24163;SDS011;12319;49.204;8.116;2023-11-21T07:36:14;3.07;;;1.57;;
24163;SDS011;12319;49.204;8.116;2023-11-21T07:38:41;3.38;;;1.75;;
24163;SDS011;12319;49.204;8.116;2023-11-21T07:41:07;3.20;;;1.70;;
24163;SDS011;12319;49.204;8.116;2023-11-21T07:43:34;2.78;;;1.65;;
24163;SDS011;12319;49.204;8.116;2023-11-21T07:46:03;3.60;;;1.77;;
24163;SDS011;12319;49.204;8.116;2023-11-21T07:48:30;3.33;;;1.70;;
24163;SDS011;12319;49.204;8.116;2023-11-21T07:50:56;3.85;;;2.00;;
24163;SDS011;12319;49.204;8.116;2023-11-21T07:53:23;3.50;;;2.00;;
24163;SDS011;12319;49.204;8.116;2023-11-21T07:55:50;3.10;;;1.75;;
24163;SDS011;12319;49.204;8.116;2023-11-21T07:58:16;3.40;;;1.90;;
24163;SDS011;12319;49.204;8.116;2023-11-21T08:00:41;3.92;;;1.95;;
24163;SDS011;12319;49.204;8.116;2023-11-21T08:03:07;3.57;;;1.90;;
24163;SDS011;12319;49.204;8.116;2023-11-21T08:05:32;3.40;;;1.83;;
24163;SDS011;12319;49.204;8.116;2023-11-21T08:07:58;3.40;;;1.88;;
24163;SDS011;12319;49.204;8.116;2023-11-21T08:10:23;3.37;;;1.87;;
24163;SDS011;12319;49.204;8.116;2023-11-21T08:12:50;3.53;;;1.70;;
24163;SDS011;12319;49.204;8.116;2023-11-21T08:15:16;3.00;;;1.70;;
24163;SDS011;12319;49.204;8.116;2023-11-21T08:17:41;3.20;;;1.70;;
24163;SDS011;12319;49.204;8.116;2023-11-21T08:20:07;3.47;;;1.70;;
24163;SDS011;12319;49.204;8.116;2023-11-21T08:22:35;3.58;;;1.77;;
24163;SDS011;12319;49.204;8.116;2023-11-21T08:25:01;3.30;;;1.87;;
24163;SDS011;12319;49.204;8.116;2023-11-21T08:27:29;3.83;;;1.98;;
24163;SDS011;12319;49.204;8.116;2023-11-21T08:29:54;3.55;;;1.95;;
24163;SDS011;12319;49.204;8.116;2023-11-21T08:32:21;3.00;;;1.70;;
24163;SDS011;12319;49.204;8.116;2023-11-21T08:34:47;3.20;;;1.63;;
24163;SDS011;12319;49.204;8.116;2023-11-21T08:37:15;4.65;;;1.63;;
24163;SDS011;12319;49.204;8.116;2023-11-21T08:39:41;2.45;;;1.50;;
24163;SDS011;12319;49.204;8.116;2023-11-21T08:42:08;2.83;;;1.60;;
24163;SDS011;12319;49.204;8.116;2023-11-21T08:44:33;2.80;;;1.40;;
24163;SDS011;12319;49.204;8.116;2023-11-21T08:46:59;2.47;;;1.40;;
24163;SDS011;12319;49.204;8.116;2023-11-21T08:49:24;2.50;;;1.47;;
24163;SDS011;12319;49.204;8.116;2023-11-21T08:51:52;3.97;;;1.80;;
24163;SDS011;12319;49.204;8.116;2023-11-21T08:54:20;2.53;;;1.45;;
24163;SDS011;12319;49.204;8.116;2023-11-21T08:56:46;3.13;;;1.60;;
24163;SDS011;12319;49.204;8.116;2023-11-21T08:59:11;4.10;;;1.70;;
24163;SDS011;12319;49.204;8.116;2023-11-21T09:01:40;2.90;;;1.60;;
24163;SDS011;12319;49.204;8.116;2023-11-21T09:04:05;2.93;;;1.70;;
24163;SDS011;12319;49.204;8.116;2023-11-21T09:06:31;3.13;;;1.60;;
24163;SDS011;12319;49.204;8.116;2023-11-21T09:08:57;2.60;;;1.57;;
24163;SDS011;12319;49.204;8.116;2023-11-21T09:11:23;3.60;;;1.70;;
24163;SDS011;12319;49.204;8.116;2023-11-21T09:13:50;3.03;;;1.50;;
24163;SDS011;12319;49.204;8.116;2023-11-21T09:16:16;2.55;;;1.50;;
24163;SDS011;12319;49.204;8.116;2023-11-21T09:18:42;2.60;;;1.53;;
24163;SDS011;12319;49.204;8.116;2023-11-21T09:21:07;4.95;;;1.77;;
24163;SDS011;12319;49.204;8.116;2023-11-21T09:23:33;2.30;;;1.40;;
24163;SDS011;12319;49.204;8.116;2023-11-21T09:25:59;2.70;;;1.55;;
24163;SDS011;12319;49.204;8.116;2023-11-21T09:28:26;2.45;;;1.48;;
24163;SDS011;12319;49.204;8.116;2023-11-21T09:30:52;2.15;;;1.40;;
24163;SDS011;12319;49.204;8.116;2023-11-21T09:33:18;2.13;;;1.40;;
24163;SDS011;12319;49.204;8.116;2023-11-21T09:35:43;2.97;;;1.50;;
24163;SDS011;12319;49.204;8.116;2023-11-21T09:38:10;2.78;;;1.50;;
24163;SDS011;12319;49.204;8.116;2023-11-21T09:40:36;2.80;;;1.60;;
24163;SDS011;12319;49.204;8.116;2023-11-21T09:43:05;2.60;;;1.50;;
24163;SDS011;12319;49.204;8.116;2023-11-21T09:45:39;2.22;;;1.35;;
24163;SDS011;12319;49.204;8.116;2023-11-21T09:48:05;2.73;;;1.47;;
24163;SDS011;12319;49.204;8.116;2023-11-21T09:50:32;2.63;;;1.40;;
24163;SDS011;12319;49.204;8.116;2023-11-21T09:53:16;2.55;;;1.50;;
24163;SDS011;12319;49.204;8.116;2023-11-21T09:55:46;2.90;;;1.50;;
24163;SDS011;12319;49.204;8.116;2023-11-21T09:58:13;2.70;;;1.60;;
24163;SDS011;12319;49.204;8.116;2023-11-21T10:00:40;2.27;;;1.50;;
24163;SDS011;12319;49.204;8.116;2023-11-21T10:03:06;2.75;;;1.50;;
24163;SDS011;12319;49.204;8.116;2023-11-21T10:05:33;2.70;;;1.50;;
24163;SDS011;12319;49.204;8.116;2023-11-21T10:07:59;2.60;;;1.50;;
24163;SDS011;12319;49.204;8.116;2023-11-21T10:10:25;2.60;;;1.60;;
24163;SDS011;12319;49.204;8.116;2023-11-21T10:12:55;3.00;;;1.60;;
24163;SDS011;12319;49.204;8.116;2023-11-21T10:15:22;3.00;;;1.70;;
24163;SDS011;12319;49.204;8.116;2023-11-21T10:17:52;3.72;;;1.60;;
24163;SDS011;12319;49.204;8.116;2023-11-21T10:20:21;3.37;;;1.60;;
24163;SDS011;12319;49.204;8.116;2023-11-21T10:22:49;2.70;;;1.63;;
24163;SDS011;12319;49.204;8.116;2023-11-21T10:25:15;2.65;;;1.60;;
24163;SDS011;12319;49.204;8.116;2023-11-21T10:27:42;3.15;;;1.70;;
24163;SDS011;12319;49.204;8.116;2023-11-21T10:30:08;2.60;;;1.33;;
24163;SDS011;12319;49.204;8.116;2023-11-21T10:32:41;2.53;;;1.50;;
24163;SDS011;12319;49.204;8.116;2023-11-21T10:35:08;2.90;;;1.55;;
24163;SDS011;12319;49.204;8.116;2023-11-21T10:37:37;2.45;;;1.50;;
24163;SDS011;12319;49.204;8.116;2023-11-21T10:40:04;2.50;;;1.50;;
24163;SDS011;12319;49.204;8.116;2023-11-21T10:42:32;2.80;;;1.70;;
24163;SDS011;12319;49.204;8.116;2023-11-21T10:44:57;2.10;;;1.50;;
24163;SDS011;12319;49.204;8.116;2023-11-21T10:47:23;2.83;;;1.60;;
24163;SDS011;12319;49.204;8.116;2023-11-21T10:49:49;2.40;;;1.40;;
24163;SDS011;12319;49.204;8.116;2023-11-21T10:52:14;2.80;;;1.60;;
24163;SDS011;12319;49.204;8.116;2023-11-21T10:54:42;2.57;;;1.60;;
24163;SDS011;12319;49.204;8.116;2023-11-21T10:57:08;2.75;;;1.50;;
24163;SDS011;12319;49.204;8.116;2023-11-21T10:59:35;2.30;;;1.50;;
24163;SDS011;12319;49.204;8.116;2023-11-21T11:02:04;2.65;;;1.60;;
24163;SDS011;12319;49.204;8.116;2023-11-21T11:04:41;3.22;;;1.80;;
24163;SDS011;12319;49.204;8.116;2023-11-21T11:07:07;2.80;;;1.63;;
24163;SDS011;12319;49.204;8.116;2023-11-21T11:09:37;2.85;;;1.70;;
24163;SDS011;12319;49.204;8.116;2023-11-21T11:12:02;3.17;;;1.60;;
24163;SDS011;12319;49.204;8.116;2023-11-21T11:14:32;3.38;;;1.60;;
24163;SDS011;12319;49.204;8.116;2023-11-21T11:16:57;2.63;;;1.52;;
24163;SDS011;12319;49.204;8.116;2023-11-21T11:19:25;3.50;;;1.70;;
24163;SDS011;12319;49.204;8.116;2023-11-21T11:31:04;2.90;;;1.60;;
24163;SDS011;12319;49.204;8.116;2023-11-21T11:33:41;2.80;;;1.60;;
24163;SDS011;12319;49.204;8.116;2023-11-21T11:36:26;3.20;;;1.70;;
24163;SDS011;12319;49.204;8.116;2023-11-21T11:38:56;3.20;;;1.70;;
24163;SDS011;12319;49.204;8.116;2023-11-21T11:41:25;3.13;;;1.80;;
24163;SDS011;12319;49.204;8.116;2023-11-21T11:43:55;2.85;;;1.60;;
24163;SDS011;12319;49.204;8.116;2023-11-21T11:46:22;3.43;;;1.70;;
24163;SDS011;12319;49.204;8.116;2023-11-21T11:49:10;3.22;;;1.65;;
24163;SDS011;12319;49.204;8.116;2023-11-21T11:51:36;3.08;;;1.70;;
24163;SDS011;12319;49.204;8.116;2023-11-21T11:54:02;3.43;;;1.80;;
24163;SDS011;12319;49.204;8.116;2023-11-21T11:56:29;3.30;;;1.70;;
24163;SDS011;12319;49.204;8.116;2023-11-21T11:58:57;3.40;;;1.80;;
24163;SDS011;12319;49.204;8.116;2023-11-21T12:01:27;3.08;;;1.80;;
24163;SDS011;12319;49.204;8.116;2023-11-21T12:04:36;2.60;;;1.50;;
24163;SDS011;12319;49.204;8.116;2023-11-21T12:06:45;2.22;;;1.48;;
24163;SDS011;12319;49.204;8.116;2023-11-21T12:09:20;2.55;;;1.55;;
24163;SDS011;12319;49.204;8.116;2023-11-21T12:11:49;2.35;;;1.52;;
24163;SDS011;12319;49.204;8.116;2023-11-21T12:14:15;2.00;;;1.38;;
24163;SDS011;12319;49.204;8.116;2023-11-21T12:16:42;2.73;;;1.47;;
24163;SDS011;12319;49.204;8.116;2023-11-21T12:19:08;2.22;;;1.48;;
24163;SDS011;12319;49.204;8.116;2023-11-21T12:21:35;2.53;;;1.50;;
24163;SDS011;12319;49.204;8.116;2023-11-21T12:24:01;2.40;;;1.50;;
24163;SDS011;12319;49.204;8.116;2023-11-21T12:26:28;2.25;;;1.50;;
24163;SDS011;12319;49.204;8.116;2023-11-21T12:28:53;2.07;;;1.33;;
24163;SDS011;12319;49.204;8.116;2023-11-21T12:31:22;2.00;;;1.25;;
24163;SDS011;12319;49.204;8.116;2023-11-21T12:33:48;3.00;;;1.60;;
24163;SDS011;12319;49.204;8.116;2023-11-21T12:36:14;2.00;;;1.40;;
24163;SDS011;12319;49.204;8.116;2023-11-21T12:38:41;2.40;;;1.40;;
24163;SDS011;12319;49.204;8.116;2023-11-21T12:41:07;2.70;;;1.50;;
24163;SDS011;12319;49.204;8.116;2023-11-21T12:43:34;3.70;;;1.50;;
24163;SDS011;12319;49.204;8.116;2023-11-21T12:46:05;2.90;;;1.70;;
24163;SDS011;12319;49.204;8.116;2023-11-21T12:48:31;2.50;;;1.55;;
24163;SDS011;12319;49.204;8.116;2023-11-21T12:50:57;2.53;;;1.48;;
24163;SDS011;12319;49.204;8.116;2023-11-21T12:53:25;2.50;;;1.40;;
24163;SDS011;12319;49.204;8.116;2023-11-21T12:55:51;2.47;;;1.40;;
24163;SDS011;12319;49.204;8.116;2023-11-21T12:58:16;2.60;;;1.58;;
24163;SDS011;12319;49.204;8.116;2023-11-21T13:00:46;2.70;;;1.50;;
24163;SDS011;12319;49.204;8.116;2023-11-21T13:03:12;2.60;;;1.40;;
24163;SDS011;12319;49.204;8.116;2023-11-21T13:05:45;3.58;;;1.70;;
24163;SDS011;12319;49.204;8.116;2023-11-21T13:08:15;2.40;;;1.40;;
24163;SDS011;12319;49.204;8.116;2023-11-21T13:10:44;2.45;;;1.50;;
24163;SDS011;12319;49.204;8.116;2023-11-21T13:13:13;2.40;;;1.43;;
24163;SDS011;12319;49.204;8.116;2023-11-21T13:16:01;2.67;;;1.40;;
24163;SDS011;12319;49.204;8.116;2023-11-21T13:18:30;2.83;;;1.60;;
24163;SDS011;12319;49.204;8.116;2023-11-21T13:21:00;2.78;;;1.60;;
24163;SDS011;12319;49.204;8.116;2023-11-21T13:23:34;3.00;;;1.58;;
24163;SDS011;12319;49.204;8.116;2023-11-21T13:26:01;3.03;;;1.60;;
24163;SDS011;12319;49.204;8.116;2023-11-21T13:28:29;3.90;;;1.50;;
24163;SDS011;12319;49.204;8.116;2023-11-21T13:30:57;3.35;;;1.60;;
24163;SDS011;12319;49.204;8.116;2023-11-21T13:33:27;2.78;;;1.45;;
24163;SDS011;12319;49.204;8.116;2023-11-21T13:35:53;3.40;;;1.57;;
24163;SDS011;12319;49.204;8.116;2023-11-21T13:38:21;2.58;;;1.50;;
24163;SDS011;12319;49.204;8.116;2023-11-21T13:40:51;2.83;;;1.60;;
24163;SDS011;12319;49.204;8.116;2023-11-21T13:43:23;2.95;;;1.60;;
24163;SDS011;12319;49.204;8.116;2023-11-21T13:45:51;2.38;;;1.48;;
24163;SDS011;12319;49.204;8.116;2023-11-21T13:48:28;2.73;;;1.50;;
24163;SDS011;12319;49.204;8.116;2023-11-21T13:51:01;2.80;;;1.65;;
24163;SDS011;12319;49.204;8.116;2023-11-21T13:53:40;4.07;;;1.70;;
24163;SDS011;12319;49.204;8.116;2023-11-21T13:56:07;2.72;;;1.60;;
24163;SDS011;12319;49.204;8.116;2023-11-21T13:58:33;2.67;;;1.42;;
24163;SDS011;12319;49.204;8.116;2023-11-21T14:01:16;2.70;;;1.40;;
24163;SDS011;12319;49.204;8.116;2023-11-21T14:03:54;2.65;;;1.60;;
24163;SDS011;12319;49.204;8.116;2023-11-21T14:06:27;2.80;;;1.60;;
24163;SDS011;12319;49.204;8.116;2023-11-21T14:08:59;2.60;;;1.50;;
24163;SDS011;12319;49.204;8.116;2023-11-21T14:11:30;2.72;;;1.60;;
24163;SDS011;12319;49.204;8.116;2023-11-21T14:13:56;3.63;;;1.57;;
24163;SDS011;12319;49.204;8.116;2023-11-21T14:16:24;2.90;;;1.60;;
24163;SDS011;12319;49.204;8.116;2023-11-21T14:18:49;3.37;;;1.80;;
24163;SDS011;12319;49.204;8.116;2023-11-21T14:21:26;3.17;;;1.77;;
24163;SDS011;12319;49.204;8.116;2023-11-21T14:23:52;3.17;;;1.60;;
24163;SDS011;12319;49.204;8.116;2023-11-21T14:26:19;3.25;;;1.75;;
24163;SDS011;12319;49.204;8.116;2023-11-21T14:28:45;3.80;;;1.55;;
24163;SDS011;12319;49.204;8.116;2023-11-21T14:31:13;3.55;;;1.70;;
24163;SDS011;12319;49.204;8.116;2023-11-21T14:33:41;3.58;;;1.75;;
24163;SDS011;12319;49.204;8.116;2023-11-21T14:36:08;4.72;;;1.83;;
24163;SDS011;12319;49.204;8.116;2023-11-21T14:38:35;3.85;;;1.60;;
24163;SDS011;12319;49.204;8.116;2023-11-21T14:41:02;3.93;;;1.77;;
24163;SDS011;12319;49.204;8.116;2023-11-21T14:43:29;3.85;;;1.90;;
24163;SDS011;12319;49.204;8.116;2023-11-21T14:45:59;3.97;;;1.80;;
24163;SDS011;12319;49.204;8.116;2023-11-21T14:48:24;3.72;;;1.83;;
24163;SDS011;12319;49.204;8.116;2023-11-21T14:51:11;3.57;;;1.90;;
24163;SDS011;12319;49.204;8.116;2023-11-21T14:53:55;3.03;;;1.70;;
24163;SDS011;12319;49.204;8.116;2023-11-21T14:56:25;2.78;;;1.65;;